createdAt,value
2019-02-14T00:00:29.658Z,13.87
2019-02-14T00:03:00.040Z,13.60
2019-02-14T00:05:30.634Z,14.13
2019-02-14T00:08:00.994Z,14.13
2019-02-14T00:10:32.017Z,13.20
2019-02-14T00:13:02.668Z,14.27
2019-02-14T00:15:32.991Z,14.50
2019-02-14T00:18:03.373Z,13.60
2019-02-14T00:20:33.738Z,14.53
2019-02-14T00:23:04.423Z,13.47
2019-02-14T00:25:35.388Z,14.63
2019-02-14T00:28:05.725Z,13.97
2019-02-14T00:30:36.589Z,13.67
2019-02-14T00:33:06.950Z,14.20
2019-02-14T00:35:37.585Z,14.27
2019-02-14T00:38:08.197Z,13.27
2019-02-14T00:40:39.228Z,12.87
2019-02-14T00:43:10.262Z,14.40
2019-02-14T00:45:59.725Z,14.27
2019-02-14T00:48:30.068Z,14.20
2019-02-14T00:51:00.755Z,14.60
2019-02-14T00:53:31.163Z,14.00
2019-02-14T00:56:01.487Z,13.00
2019-02-14T00:58:32.152Z,14.67
2019-02-14T01:01:02.518Z,15.13
2019-02-14T01:03:32.893Z,15.03
2019-02-14T01:06:03.722Z,15.93
2019-02-14T01:08:34.566Z,14.90
2019-02-14T01:11:04.928Z,15.73
2019-02-14T01:13:35.541Z,13.70
2019-02-14T01:16:05.937Z,14.07
2019-02-14T01:18:36.292Z,13.43
2019-02-14T01:21:06.663Z,15.87
2019-02-14T01:23:37.395Z,15.40
2019-02-14T01:26:07.741Z,15.40
2019-02-14T01:28:38.115Z,15.50
2019-02-14T01:31:08.477Z,14.67
2019-02-14T01:33:38.857Z,13.87
2019-02-14T01:36:09.522Z,14.30
2019-02-14T01:38:40.196Z,13.90
2019-02-14T01:41:10.603Z,15.00
2019-02-14T01:43:41.217Z,14.93
2019-02-14T01:46:11.556Z,14.20
2019-02-14T01:48:42.199Z,14.27
2019-02-14T01:51:12.824Z,13.83
2019-02-14T01:53:43.211Z,14.77
2019-02-14T01:56:13.862Z,13.80
2019-02-14T01:58:44.587Z,14.43
2019-02-14T02:01:15.733Z,14.83
2019-02-14T02:03:46.121Z,16.03
2019-02-14T02:06:16.474Z,15.30
2019-02-14T02:08:46.814Z,14.40
2019-02-14T02:11:17.176Z,14.87
2019-02-14T02:13:47.582Z,13.73
2019-02-14T02:16:17.898Z,14.83
2019-02-14T02:18:48.295Z,14.67
2019-02-14T02:21:19.179Z,14.73
2019-02-14T02:23:50.100Z,14.40
2019-02-14T02:26:20.469Z,14.53
2019-02-14T02:28:50.814Z,14.77
2019-02-14T02:31:21.451Z,15.07
2019-02-14T02:33:51.808Z,14.10
2019-02-14T02:36:22.236Z,15.67
2019-02-14T02:38:52.860Z,14.57
2019-02-14T02:41:23.163Z,14.43
2019-02-14T02:43:53.526Z,14.50
2019-02-14T02:46:23.925Z,14.73
2019-02-14T02:48:54.608Z,14.53
2019-02-14T02:51:24.948Z,14.27
2019-02-14T02:53:55.872Z,14.77
2019-02-14T02:56:26.236Z,14.07
2019-02-14T02:58:56.887Z,13.80
2019-02-14T03:01:27.809Z,13.83
2019-02-14T03:03:58.461Z,13.13
2019-02-14T03:06:30.157Z,14.13
2019-02-14T03:09:00.523Z,14.40
2019-02-14T03:11:30.864Z,14.97
2019-02-14T03:14:01.493Z,14.80
2019-02-14T03:16:31.902Z,13.87
2019-02-14T03:19:02.288Z,14.43
2019-02-14T03:21:32.625Z,14.67
2019-02-14T03:24:10.824Z,15.33
2019-02-14T03:26:41.210Z,15.67
2019-02-14T03:29:11.535Z,15.63
2019-02-14T03:31:42.175Z,15.43
2019-02-14T03:34:12.767Z,14.47
2019-02-14T03:36:43.134Z,14.47
2019-02-14T03:39:13.484Z,15.60
2019-02-14T03:41:43.877Z,15.07
2019-02-14T03:44:14.284Z,14.77
2019-02-14T03:46:44.905Z,14.23
2019-02-14T03:49:15.317Z,15.50
2019-02-14T03:51:45.679Z,14.83
2019-02-14T03:54:16.435Z,14.03
2019-02-14T03:56:46.825Z,15.20
2019-02-14T03:59:17.286Z,15.00
2019-02-14T04:01:47.658Z,13.90
2019-02-14T04:04:18.087Z,16.13
2019-02-14T04:06:48.428Z,14.47
2019-02-14T04:09:19.066Z,15.17
2019-02-14T04:11:49.738Z,16.57
2019-02-14T04:14:20.118Z,16.27
2019-02-14T04:16:50.468Z,15.80
2019-02-14T04:19:21.423Z,17.37
2019-02-14T04:21:52.037Z,15.53
2019-02-14T04:24:22.938Z,17.33
2019-02-14T04:26:53.523Z,16.07
2019-02-14T04:29:24.133Z,15.23
2019-02-14T04:31:54.486Z,15.67
2019-02-14T04:34:24.857Z,15.37
2019-02-14T04:36:55.888Z,16.43
2019-02-14T04:39:26.588Z,16.93
2019-02-14T04:41:56.962Z,16.83
2019-02-14T04:44:27.345Z,17.50
2019-02-14T04:46:57.701Z,17.70
2019-02-14T04:49:28.600Z,16.43
2019-02-14T04:51:58.970Z,15.87
2019-02-14T04:54:29.602Z,16.33
2019-02-14T04:57:00.237Z,15.83
2019-02-14T04:59:30.568Z,16.30
2019-02-14T05:02:00.917Z,16.27
2019-02-14T05:04:31.303Z,16.20
2019-02-14T05:07:01.640Z,16.23
2019-02-14T05:09:32.010Z,17.13
2019-02-14T05:12:02.617Z,15.10
2019-02-14T05:14:35.280Z,16.40
2019-02-14T05:17:05.581Z,18.50
2019-02-14T05:19:36.965Z,18.63
2019-02-14T05:22:07.262Z,19.43
2019-02-14T05:24:37.911Z,19.30
2019-02-14T05:27:08.594Z,18.77
2019-02-14T05:29:38.960Z,18.37
2019-02-14T05:32:09.339Z,18.40
2019-02-14T05:34:39.709Z,19.33
2019-02-14T05:37:10.402Z,19.47
2019-02-14T05:39:40.996Z,18.23
2019-02-14T05:42:11.374Z,19.47
2019-02-14T05:44:42.417Z,19.37
2019-02-14T05:47:13.402Z,20.10
2019-02-14T05:49:43.762Z,19.37
2019-02-14T05:52:14.399Z,19.70
2019-02-14T05:54:45.069Z,19.73
2019-02-14T05:57:15.437Z,19.23
2019-02-14T05:59:45.790Z,19.93
2019-02-14T06:02:17.794Z,20.53
2019-02-14T06:04:48.765Z,19.93
2019-02-14T06:07:20.307Z,19.87
2019-02-14T06:09:51.006Z,17.93
2019-02-14T06:12:21.653Z,17.50
2019-02-14T06:14:52.110Z,16.83
2019-02-14T06:17:22.425Z,17.63
2019-02-14T06:19:52.738Z,16.37
2019-02-14T06:22:23.060Z,16.97
2019-02-14T06:24:53.398Z,16.63
2019-02-14T06:27:24.068Z,17.67
2019-02-14T06:29:54.424Z,17.07
2019-02-14T06:32:24.829Z,19.03
2019-02-14T06:34:55.208Z,18.53
2019-02-14T06:37:25.554Z,18.60
2019-02-14T06:39:55.927Z,16.67
2019-02-14T06:42:26.298Z,19.03
2019-02-14T06:44:56.629Z,17.83
2019-02-14T06:47:27.412Z,17.10
2019-02-14T06:49:57.725Z,16.83
2019-02-14T06:52:28.834Z,18.60
2019-02-14T06:54:59.152Z,16.87
2019-02-14T06:57:29.484Z,18.13
2019-02-14T06:59:59.821Z,16.97
2019-02-14T07:02:49.987Z,17.87
2019-02-14T07:05:20.628Z,16.27
2019-02-14T07:07:51.029Z,17.97
2019-02-14T07:10:21.350Z,17.33
2019-02-14T07:12:51.953Z,16.30
2019-02-14T07:15:22.282Z,16.27
2019-02-14T07:17:56.844Z,15.30
2019-02-14T07:20:27.171Z,14.93
2019-02-14T07:22:57.847Z,15.93
2019-02-14T07:25:28.150Z,14.80
2019-02-14T07:27:58.554Z,15.40
2019-02-14T07:30:29.337Z,14.37
2019-02-14T07:32:59.690Z,15.47
2019-02-14T07:35:30.041Z,14.73
2019-02-14T07:38:01.128Z,14.30
2019-02-14T07:40:31.438Z,14.00
2019-02-14T07:43:02.000Z,15.53
2019-02-14T07:45:32.343Z,15.97
2019-02-14T07:48:03.041Z,15.97
2019-02-14T07:50:33.762Z,15.30
2019-02-14T07:53:04.300Z,16.23
2019-02-14T07:55:34.630Z,15.50
2019-02-14T07:58:04.974Z,14.47
2019-02-14T08:00:35.616Z,14.33
2019-02-14T08:03:05.959Z,13.43
2019-02-14T08:05:36.305Z,14.37
2019-02-14T08:08:06.657Z,13.80
2019-02-14T08:10:39.426Z,13.77
2019-02-14T08:13:16.178Z,14.43
2019-02-14T08:15:54.555Z,12.87
2019-02-14T08:18:24.958Z,12.53
2019-02-14T08:20:55.558Z,11.47
2019-02-14T08:23:25.965Z,12.77
2019-02-14T08:25:56.901Z,10.53
2019-02-14T08:28:27.197Z,10.70
2019-02-14T08:30:57.940Z,10.80
2019-02-14T08:33:28.568Z,10.47
2019-02-14T08:35:59.423Z,11.07
2019-02-14T08:38:48.124Z,9.77
2019-02-14T08:41:24.854Z,10.77
2019-02-14T08:43:55.173Z,11.33
2019-02-14T08:46:25.777Z,9.70
2019-02-14T08:48:56.136Z,9.90
2019-02-14T08:51:27.416Z,10.20
2019-02-14T08:53:58.241Z,9.90
2019-02-14T08:56:28.919Z,9.50
2019-02-14T08:58:59.203Z,9.13
2019-02-14T09:01:38.563Z,9.30
2019-02-14T09:04:09.773Z,9.67
2019-02-14T09:06:40.061Z,9.60
2019-02-14T09:09:10.774Z,9.20
2019-02-14T09:11:41.427Z,8.87
2019-02-14T09:14:11.783Z,8.57
2019-02-14T09:16:44.785Z,9.10
2019-02-14T09:19:15.353Z,8.17
2019-02-14T09:21:46.000Z,8.33
2019-02-14T09:24:16.579Z,8.40
2019-02-14T09:26:46.928Z,8.17
2019-02-14T09:29:19.412Z,8.67
2019-02-14T09:31:49.735Z,8.60
2019-02-14T09:34:20.352Z,8.37
2019-02-14T09:36:51.757Z,7.60
2019-02-14T09:39:22.481Z,7.77
2019-02-14T09:41:52.964Z,7.73
2019-02-14T09:44:23.708Z,6.60
2019-02-14T09:46:54.442Z,6.90
2019-02-14T09:49:24.829Z,5.97
2019-02-14T09:51:59.139Z,6.07
2019-02-14T09:54:29.493Z,6.27
2019-02-14T09:56:59.924Z,6.10
2019-02-14T09:59:30.399Z,6.10
2019-02-14T10:02:01.007Z,5.67
2019-02-14T10:04:31.600Z,5.83
2019-02-14T10:07:02.334Z,4.80
2019-02-14T10:09:32.925Z,4.90
2019-02-14T10:12:03.758Z,4.10
2019-02-14T10:14:34.094Z,4.53
2019-02-14T10:17:05.534Z,4.23
2019-02-14T10:19:35.892Z,4.37
2019-02-14T10:22:06.228Z,4.20
2019-02-14T10:24:36.628Z,3.93
2019-02-14T10:27:07.056Z,4.37
2019-02-14T10:29:37.386Z,3.97
2019-02-14T10:32:08.011Z,3.60
2019-02-14T10:34:38.824Z,4.20
2019-02-14T10:37:09.122Z,3.43
2019-02-14T10:39:39.432Z,3.80
2019-02-14T10:42:10.253Z,3.80
2019-02-14T10:44:41.010Z,3.90
2019-02-14T10:47:11.312Z,3.43
2019-02-14T10:49:41.693Z,3.90
2019-02-14T10:52:12.065Z,3.57
2019-02-14T10:54:42.378Z,3.50
2019-02-14T10:57:12.696Z,3.50
2019-02-14T10:59:45.124Z,3.57
2019-02-14T11:02:15.741Z,3.10
2019-02-14T11:04:47.078Z,3.30
2019-02-14T11:07:18.912Z,3.60
2019-02-14T11:09:49.633Z,3.33
2019-02-14T11:12:21.813Z,2.60
2019-02-14T11:14:52.318Z,3.13
2019-02-14T11:17:22.930Z,3.67
2019-02-14T11:19:53.302Z,3.13
2019-02-14T11:22:27.754Z,2.80
2019-02-14T11:24:59.280Z,2.73
2019-02-14T11:27:29.800Z,2.67
2019-02-14T11:30:00.773Z,2.60
2019-02-14T11:32:31.718Z,2.70
2019-02-14T11:35:02.620Z,2.67
2019-02-14T11:37:33.005Z,2.50
2019-02-14T11:40:03.342Z,2.43
2019-02-14T11:42:33.913Z,3.87
2019-02-14T11:45:04.587Z,2.57
2019-02-14T11:47:35.233Z,2.23
2019-02-14T11:50:06.663Z,2.43
2019-02-14T11:52:37.156Z,2.60
2019-02-14T11:55:07.629Z,2.57
2019-02-14T11:57:38.278Z,2.60
2019-02-14T12:00:14.765Z,2.17
2019-02-14T12:02:55.132Z,2.20
2019-02-14T12:05:20.402Z,2.00
2019-02-14T12:07:55.697Z,1.90
2019-02-14T12:10:26.122Z,2.80
2019-02-14T12:12:56.453Z,2.00
2019-02-14T12:15:26.893Z,1.90
2019-02-14T12:17:57.264Z,1.70
2019-02-14T12:20:27.916Z,1.70
2019-02-14T12:22:58.504Z,1.70
2019-02-14T12:25:28.953Z,1.63
2019-02-14T12:27:59.918Z,1.50
2019-02-14T12:30:31.270Z,1.70
2019-02-14T12:33:02.139Z,1.20
2019-02-14T12:35:32.665Z,1.40
2019-02-14T12:38:02.980Z,1.50
2019-02-14T12:40:33.339Z,1.23
2019-02-14T12:43:06.238Z,1.67
2019-02-14T12:45:39.041Z,1.57
2019-02-14T12:48:09.679Z,1.40
2019-02-14T12:50:40.265Z,1.60
2019-02-14T12:53:10.618Z,1.40
2019-02-14T12:55:41.012Z,1.60
2019-02-14T12:58:11.649Z,1.40
2019-02-14T13:00:41.976Z,1.53
2019-02-14T13:03:12.348Z,1.40
2019-02-14T13:05:43.091Z,1.30
2019-02-14T13:08:13.429Z,1.50
2019-02-14T13:10:43.807Z,2.00
2019-02-14T13:13:14.147Z,2.30
2019-02-14T13:15:44.745Z,1.60
2019-02-14T13:18:15.458Z,1.97
2019-02-14T13:20:45.761Z,1.80
2019-02-14T13:23:16.108Z,2.20
2019-02-14T13:25:46.525Z,1.70
2019-02-14T13:28:16.860Z,2.00
2019-02-14T13:30:47.175Z,2.00
2019-02-14T13:33:17.574Z,1.90
2019-02-14T13:35:48.159Z,1.90
2019-02-14T13:38:18.475Z,3.27
2019-02-14T13:40:54.516Z,2.50
2019-02-14T13:43:24.470Z,2.10
2019-02-14T13:45:55.092Z,2.50
2019-02-14T13:48:25.415Z,2.60
2019-02-14T13:50:55.759Z,2.13
2019-02-14T13:53:26.373Z,2.60
2019-02-14T13:55:56.741Z,2.63
2019-02-14T13:58:27.423Z,2.47
2019-02-14T14:00:57.799Z,2.30
2019-02-14T14:03:28.246Z,2.00
2019-02-14T14:05:58.583Z,2.10
2019-02-14T14:08:28.957Z,2.17
2019-02-14T14:11:01.767Z,1.90
2019-02-14T14:13:32.606Z,2.20
2019-02-14T14:16:04.131Z,2.50
2019-02-14T14:18:34.889Z,2.00
2019-02-14T14:21:11.537Z,1.87
2019-02-14T14:23:41.872Z,1.70
2019-02-14T14:26:13.276Z,2.03
2019-02-14T14:28:43.713Z,1.80
2019-02-14T14:31:14.463Z,1.97
2019-02-14T14:33:45.182Z,1.63
2019-02-14T14:36:15.845Z,1.90
2019-02-14T14:38:46.199Z,1.57
2019-02-14T14:41:25.738Z,1.80
2019-02-14T14:44:16.127Z,1.87
2019-02-14T14:46:56.521Z,1.70
2019-02-14T14:49:26.843Z,1.90
2019-02-14T14:51:57.653Z,1.90
2019-02-14T14:54:47.464Z,1.80
2019-02-14T14:57:17.955Z,1.97
2019-02-14T14:59:48.344Z,1.90
2019-02-14T15:02:18.955Z,1.80
2019-02-14T15:04:49.917Z,1.80
2019-02-14T15:07:20.265Z,1.93
2019-02-14T15:09:57.315Z,2.10
2019-02-14T15:12:22.887Z,2.13
2019-02-14T15:14:53.223Z,2.20
2019-02-14T15:17:23.854Z,1.93
2019-02-14T15:19:54.586Z,2.13
2019-02-14T15:22:25.238Z,2.20
2019-02-14T15:24:55.516Z,2.00
2019-02-14T15:27:26.312Z,2.00
2019-02-14T15:29:58.277Z,2.23
2019-02-14T15:32:29.125Z,2.63
2019-02-14T15:34:59.475Z,2.70
2019-02-14T15:37:30.632Z,2.10
2019-02-14T15:40:08.653Z,2.20
2019-02-14T15:42:33.396Z,2.30
2019-02-14T15:45:03.718Z,2.20
2019-02-14T15:47:34.386Z,2.40
2019-02-14T15:50:08.730Z,2.23
2019-02-14T15:52:38.276Z,2.20
2019-02-14T15:55:08.692Z,2.30
2019-02-14T15:57:40.464Z,2.60
2019-02-14T16:00:11.909Z,2.87
2019-02-14T16:02:42.539Z,2.70
2019-02-14T16:05:14.512Z,2.57
2019-02-14T16:07:45.222Z,2.40
2019-02-14T16:10:18.721Z,2.40
2019-02-14T16:12:47.857Z,2.17
2019-02-14T16:15:18.530Z,2.00
2019-02-14T16:17:49.886Z,2.20
2019-02-14T16:20:20.464Z,2.00
2019-02-14T16:22:50.821Z,2.10
2019-02-14T16:25:21.968Z,2.60
2019-02-14T16:27:52.298Z,2.57
2019-02-14T16:30:23.071Z,2.87
2019-02-14T16:32:53.367Z,2.53
2019-02-14T16:35:24.065Z,3.00
2019-02-14T16:37:54.436Z,3.10
2019-02-14T16:40:28.002Z,3.73
2019-02-14T16:42:57.225Z,3.53
2019-02-14T16:45:27.536Z,3.80
2019-02-14T16:47:58.273Z,3.80
2019-02-14T16:50:37.829Z,3.13
2019-02-14T16:53:08.722Z,3.80
2019-02-14T16:55:39.412Z,3.53
2019-02-14T16:58:10.113Z,4.30
2019-02-14T17:00:40.467Z,4.03
2019-02-14T17:03:10.806Z,4.43
2019-02-14T17:05:41.688Z,4.13
2019-02-14T17:08:12.080Z,4.73
2019-02-14T17:10:42.807Z,5.10
2019-02-14T17:13:13.141Z,4.40
2019-02-14T17:15:43.470Z,4.40
2019-02-14T17:18:14.294Z,5.17
2019-02-14T17:20:44.629Z,5.03
2019-02-14T17:23:14.985Z,5.20
2019-02-14T17:25:45.366Z,4.80
2019-02-14T17:28:15.742Z,5.27
2019-02-14T17:30:46.070Z,5.87
2019-02-14T17:33:16.428Z,5.27
2019-02-14T17:35:46.748Z,5.20
2019-02-14T17:38:17.109Z,4.53
2019-02-14T17:40:59.670Z,5.20
2019-02-14T17:43:30.691Z,4.67
2019-02-14T17:46:01.466Z,5.10
2019-02-14T17:48:31.784Z,5.73
2019-02-14T17:51:02.147Z,5.67
2019-02-14T17:53:32.536Z,4.83
2019-02-14T17:56:03.129Z,5.27
2019-02-14T17:58:33.471Z,5.77
2019-02-14T18:01:03.823Z,6.10
2019-02-14T18:03:34.208Z,6.27
2019-02-14T18:06:04.770Z,7.50
2019-02-14T18:08:35.494Z,10.07
2019-02-14T18:11:05.838Z,6.87
2019-02-14T18:13:36.534Z,5.73
2019-02-14T18:16:07.281Z,5.80
2019-02-14T18:18:37.663Z,5.93
2019-02-14T18:21:08.555Z,5.47
2019-02-14T18:23:39.673Z,5.83
2019-02-14T18:26:10.249Z,5.80
2019-02-14T18:28:40.593Z,5.20
2019-02-14T18:31:30.315Z,6.50
2019-02-14T18:34:00.687Z,5.80
2019-02-14T18:36:30.972Z,5.53
2019-02-14T18:39:01.555Z,6.03
2019-02-14T18:41:31.939Z,6.03
2019-02-14T18:44:02.349Z,5.57
2019-02-14T18:46:38.901Z,6.10
2019-02-14T18:49:09.474Z,6.30
2019-02-14T18:51:40.493Z,6.10
2019-02-14T18:54:11.090Z,6.77
2019-02-14T18:56:41.740Z,7.00
2019-02-14T18:59:12.100Z,7.67
2019-02-14T19:01:42.426Z,7.27
2019-02-14T19:04:12.733Z,7.90
2019-02-14T19:06:43.527Z,7.73
2019-02-14T19:09:14.206Z,7.47
2019-02-14T19:11:44.672Z,8.70
2019-02-14T19:14:15.000Z,8.00
2019-02-14T19:16:45.388Z,7.80
2019-02-14T19:19:17.949Z,7.77
2019-02-14T19:21:48.858Z,7.13
2019-02-14T19:24:19.215Z,7.40
2019-02-14T19:26:49.841Z,8.20
2019-02-14T19:29:20.614Z,8.67
2019-02-14T19:31:50.930Z,9.00
2019-02-14T19:34:21.371Z,9.40
2019-02-14T19:36:51.683Z,9.37
2019-02-14T19:39:22.001Z,10.00
2019-02-14T19:41:52.365Z,10.90
2019-02-14T19:44:23.059Z,10.20
2019-02-14T19:46:54.049Z,9.20
2019-02-14T19:49:25.176Z,9.37
2019-02-14T19:51:55.509Z,9.90
2019-02-14T19:54:26.050Z,10.30
2019-02-14T19:56:56.661Z,10.20
2019-02-14T19:59:26.983Z,10.30
2019-02-14T20:01:57.321Z,11.27
2019-02-14T20:04:29.580Z,10.40
2019-02-14T20:06:59.873Z,12.47
2019-02-14T20:09:30.505Z,10.53
2019-02-14T20:12:01.234Z,10.10
2019-02-14T20:14:31.572Z,10.27
2019-02-14T20:17:01.952Z,10.53
2019-02-14T20:19:32.586Z,10.07
2019-02-14T20:22:02.976Z,9.67
2019-02-14T20:24:33.614Z,10.83
2019-02-14T20:27:08.390Z,10.27
2019-02-14T20:29:39.002Z,10.50
2019-02-14T20:32:10.016Z,9.77
2019-02-14T20:34:40.744Z,9.60
2019-02-14T20:37:11.077Z,9.57
2019-02-14T20:39:41.445Z,8.63
2019-02-14T20:42:11.794Z,9.03
2019-02-14T20:44:42.917Z,9.07
2019-02-14T20:47:13.262Z,8.40
2019-02-14T20:49:43.642Z,9.07
2019-02-14T20:52:14.298Z,9.90
2019-02-14T20:54:44.790Z,9.40
2019-02-14T20:57:15.207Z,9.80
2019-02-14T20:59:45.518Z,9.80
2019-02-14T21:02:16.126Z,9.63
2019-02-14T21:04:46.772Z,9.50
2019-02-14T21:07:17.148Z,9.47
2019-02-14T21:10:05.771Z,10.07
2019-02-14T21:12:36.149Z,10.00
2019-02-14T21:15:19.690Z,10.00
2019-02-14T21:18:00.511Z,10.20
2019-02-14T21:20:30.989Z,9.83
2019-02-14T21:23:01.749Z,10.47
2019-02-14T21:25:32.142Z,9.80
2019-02-14T21:28:02.792Z,9.80
2019-02-14T21:30:40.521Z,9.23
2019-02-14T21:33:11.697Z,10.63
2019-02-14T21:35:42.271Z,9.70
2019-02-14T21:38:12.681Z,9.50
2019-02-14T21:40:43.297Z,9.60
2019-02-14T21:43:15.931Z,9.90
2019-02-14T21:46:14.991Z,9.73
2019-02-14T21:48:45.729Z,9.13
2019-02-14T21:51:16.103Z,9.40
2019-02-14T21:53:46.530Z,9.60
2019-02-14T21:56:36.114Z,10.13
2019-02-14T21:59:06.450Z,9.53
2019-02-14T22:01:36.917Z,10.03
2019-02-14T22:04:07.655Z,9.43
2019-02-14T22:06:38.020Z,9.67
2019-02-14T22:09:08.768Z,9.33
2019-02-14T22:11:39.058Z,10.10
2019-02-14T22:14:09.875Z,9.53
2019-02-14T22:16:47.643Z,9.50
2019-02-14T22:19:17.961Z,10.23
2019-02-14T22:22:08.390Z,9.87
2019-02-14T22:24:38.788Z,9.70
2019-02-14T22:27:09.491Z,10.10
2019-02-14T22:29:40.223Z,10.13
2019-02-14T22:32:14.922Z,9.07
2019-02-14T22:34:45.369Z,9.57
2019-02-14T22:37:16.115Z,9.53
2019-02-14T22:39:46.824Z,9.03
2019-02-14T22:42:17.194Z,8.90
2019-02-14T22:45:06.668Z,9.83
2019-02-14T22:47:37.277Z,9.13
2019-02-14T22:50:08.045Z,10.20
2019-02-14T22:52:38.439Z,9.50
2019-02-14T22:55:09.370Z,9.17
2019-02-14T22:57:39.679Z,9.73
2019-02-14T23:00:38.278Z,9.77
2019-02-14T23:03:08.745Z,8.70
2019-02-14T23:05:39.171Z,9.87
2019-02-14T23:08:10.295Z,9.17
2019-02-14T23:10:40.610Z,8.93
2019-02-14T23:13:10.947Z,9.17
2019-02-14T23:15:41.303Z,9.43
2019-02-14T23:18:11.653Z,9.53
2019-02-14T23:20:42.299Z,9.80
2019-02-14T23:23:12.620Z,9.97
2019-02-14T23:25:43.212Z,9.70
2019-02-14T23:28:13.530Z,8.97
2019-02-14T23:30:44.781Z,8.53
2019-02-14T23:33:15.682Z,8.30
2019-02-14T23:35:46.280Z,8.13
2019-02-14T23:38:16.894Z,8.93
2019-02-14T23:40:47.263Z,8.90
2019-02-14T23:43:18.725Z,7.70
2019-02-14T23:45:49.317Z,7.90
2019-02-14T23:48:20.336Z,7.70
2019-02-14T23:50:50.658Z,8.13
2019-02-14T23:53:21.093Z,7.97
2019-02-14T23:55:51.381Z,7.43
2019-02-14T23:58:21.744Z,7.37
